createdAt,value
2023-04-27T00:02:09.460Z,76.45
2023-04-27T00:04:37.778Z,76.69
2023-04-27T00:07:05.638Z,76.99
2023-04-27T00:09:33.329Z,77.16
2023-04-27T00:12:01.489Z,77.63
2023-04-27T00:14:29.234Z,77.88
2023-04-27T00:16:56.993Z,77.88
2023-04-27T00:19:24.663Z,77.60
2023-04-27T00:21:52.424Z,77.64
2023-04-27T00:24:20.035Z,77.80
2023-04-27T00:26:47.673Z,78.03
2023-04-27T00:29:15.651Z,78.18
2023-04-27T00:31:43.561Z,78.33
2023-04-27T00:34:11.206Z,78.90
2023-04-27T00:36:38.878Z,78.82
2023-04-27T00:39:06.662Z,79.00
2023-04-27T00:41:37.891Z,78.93
2023-04-27T00:44:06.011Z,78.82
2023-04-27T00:46:34.335Z,78.90
2023-04-27T00:49:02.826Z,79.04
2023-04-27T00:51:31.405Z,79.34
2023-04-27T00:54:00.201Z,79.44
2023-04-27T00:56:28.049Z,79.40
2023-04-27T00:58:56.040Z,79.47
2023-04-27T01:01:23.733Z,79.48
2023-04-27T01:03:51.785Z,79.33
2023-04-27T01:06:19.703Z,79.55
2023-04-27T01:08:47.370Z,79.47
2023-04-27T01:11:15.359Z,79.55
2023-04-27T01:13:43.118Z,79.87
2023-04-27T01:16:10.731Z,79.96
2023-04-27T01:18:40.735Z,80.46
2023-04-27T01:21:08.483Z,80.10
2023-04-27T01:23:36.667Z,80.04
2023-04-27T01:26:04.593Z,80.02
2023-04-27T01:28:32.258Z,80.34
2023-04-27T01:31:00.052Z,80.40
2023-04-27T01:33:27.676Z,81.26
2023-04-27T01:35:55.551Z,81.13
2023-04-27T01:38:24.338Z,81.13
2023-04-27T01:40:52.199Z,81.24
2023-04-27T01:43:19.861Z,81.24
2023-04-27T01:45:48.671Z,81.17
2023-04-27T01:48:16.740Z,81.13
2023-04-27T01:50:44.394Z,81.05
2023-04-27T01:53:12.163Z,81.17
2023-04-27T01:55:40.031Z,81.25
2023-04-27T01:58:07.788Z,81.15
2023-04-27T02:00:35.463Z,81.06
2023-04-27T02:03:03.561Z,81.10
2023-04-27T02:05:31.472Z,81.09
2023-04-27T02:07:59.237Z,81.01
2023-04-27T02:10:26.871Z,80.60
2023-04-27T02:12:54.690Z,80.13
2023-04-27T02:15:23.011Z,80.32
2023-04-27T02:17:50.784Z,80.82
2023-04-27T02:20:18.591Z,81.08
2023-04-27T02:22:46.240Z,81.21
2023-04-27T02:25:14.417Z,81.26
2023-04-27T02:27:42.101Z,81.25
2023-04-27T02:30:11.866Z,81.31
2023-04-27T02:32:41.404Z,81.16
2023-04-27T02:35:10.153Z,81.22
2023-04-27T02:37:37.887Z,81.29
2023-04-27T02:40:09.601Z,81.54
2023-04-27T02:42:39.108Z,81.45
2023-04-27T02:45:08.246Z,81.88
2023-04-27T02:47:36.252Z,81.26
2023-04-27T02:50:04.742Z,81.53
2023-04-27T02:52:32.411Z,81.08
2023-04-27T02:55:00.108Z,81.17
2023-04-27T02:57:28.155Z,81.63
2023-04-27T02:59:55.839Z,81.52
2023-04-27T03:02:23.720Z,81.56
2023-04-27T03:04:55.436Z,81.71
2023-04-27T03:07:23.117Z,81.84
2023-04-27T03:09:50.968Z,81.93
2023-04-27T03:12:18.689Z,82.01
2023-04-27T03:14:46.372Z,81.99
2023-04-27T03:17:14.041Z,81.94
2023-04-27T03:19:41.906Z,82.00
2023-04-27T03:22:09.563Z,81.99
2023-04-27T03:24:37.338Z,82.08
2023-04-27T03:27:05.004Z,82.11
2023-04-27T03:29:32.761Z,82.22
2023-04-27T03:32:01.077Z,82.27
2023-04-27T03:34:28.734Z,82.35
2023-04-27T03:36:56.971Z,82.28
2023-04-27T03:39:24.688Z,82.19
2023-04-27T03:41:52.394Z,82.17
2023-04-27T03:44:20.016Z,82.07
2023-04-27T03:46:47.619Z,82.16
2023-04-27T03:49:15.373Z,82.05
2023-04-27T03:51:44.190Z,81.99
2023-04-27T03:54:11.815Z,81.96
2023-04-27T03:56:39.538Z,81.56
2023-04-27T03:59:07.258Z,81.39
2023-04-27T04:01:35.028Z,81.33
2023-04-27T04:04:02.924Z,81.31
2023-04-27T04:06:31.202Z,81.17
2023-04-27T04:08:59.028Z,81.17
2023-04-27T04:11:27.631Z,81.09
2023-04-27T04:13:55.501Z,80.55
2023-04-27T04:16:23.358Z,80.64
2023-04-27T04:18:51.512Z,80.85
2023-04-27T04:21:19.142Z,80.44
2023-04-27T04:23:46.803Z,80.38
2023-04-27T04:26:14.993Z,79.66
2023-04-27T04:28:44.312Z,79.89
2023-04-27T04:31:13.565Z,79.52
2023-04-27T04:33:41.372Z,78.82
2023-04-27T04:36:10.989Z,79.40
2023-04-27T04:38:38.878Z,78.96
2023-04-27T04:41:07.437Z,78.42
2023-04-27T04:43:35.084Z,78.36
2023-04-27T04:46:02.829Z,77.67
2023-04-27T04:48:30.501Z,78.00
2023-04-27T04:50:58.199Z,77.50
2023-04-27T04:53:26.389Z,77.93
2023-04-27T04:55:54.120Z,77.78
2023-04-27T04:58:21.768Z,77.75
2023-04-27T05:00:49.470Z,77.50
2023-04-27T05:03:17.513Z,77.61
2023-04-27T05:05:45.583Z,77.11
2023-04-27T05:08:13.386Z,76.35
2023-04-27T05:10:41.119Z,76.20
2023-04-27T05:13:08.873Z,75.78
2023-04-27T05:15:37.582Z,75.55
2023-04-27T05:18:05.391Z,75.53
2023-04-27T05:20:37.677Z,75.28
2023-04-27T05:23:05.580Z,75.22
2023-04-27T05:25:34.649Z,75.33
2023-04-27T05:28:02.305Z,75.38
2023-04-27T05:30:29.945Z,75.26
2023-04-27T05:32:57.565Z,75.33
2023-04-27T05:35:25.237Z,75.33
2023-04-27T05:37:52.956Z,75.33
2023-04-27T05:40:20.615Z,75.50
2023-04-27T05:42:49.207Z,75.19
2023-04-27T05:45:16.948Z,74.65
2023-04-27T05:47:44.640Z,74.68
2023-04-27T05:50:12.591Z,74.79
2023-04-27T05:52:40.790Z,74.65
2023-04-27T05:55:08.736Z,74.49
2023-04-27T05:57:36.446Z,74.34
2023-04-27T06:00:09.266Z,74.03
2023-04-27T06:02:37.088Z,73.97
2023-04-27T06:05:05.599Z,74.27
2023-04-27T06:07:33.618Z,74.33
2023-04-27T06:10:01.354Z,74.17
2023-04-27T06:12:29.075Z,73.94
2023-04-27T06:14:56.728Z,73.71
2023-04-27T06:17:24.445Z,73.71
2023-04-27T06:19:52.201Z,73.59
2023-04-27T06:22:19.967Z,73.55
2023-04-27T06:24:47.863Z,73.57
2023-04-27T06:27:15.690Z,73.20
2023-04-27T06:29:43.377Z,72.76
2023-04-27T06:32:11.225Z,71.89
2023-04-27T06:34:38.925Z,70.85
2023-04-27T06:37:06.668Z,70.62
2023-04-27T06:39:35.398Z,70.99
2023-04-27T06:42:05.909Z,71.53
2023-04-27T06:44:33.627Z,71.95
2023-04-27T06:47:01.300Z,71.98
2023-04-27T06:49:29.059Z,71.89
2023-04-27T06:51:57.321Z,72.05
2023-04-27T06:54:25.194Z,71.93
2023-04-27T06:56:54.808Z,71.74
2023-04-27T06:59:22.527Z,70.96
2023-04-27T07:01:50.298Z,70.22
2023-04-27T07:04:18.320Z,70.56
2023-04-27T07:06:46.388Z,70.09
2023-04-27T07:09:26.450Z,69.98
2023-04-27T07:11:56.023Z,69.66
2023-04-27T07:14:23.886Z,69.51
2023-04-27T07:16:51.659Z,69.55
2023-04-27T07:19:19.541Z,68.96
2023-04-27T07:21:47.381Z,68.30
2023-04-27T07:24:15.121Z,68.40
2023-04-27T07:26:42.813Z,67.93
2023-04-27T07:29:25.737Z,68.48
2023-04-27T07:31:56.109Z,68.61
2023-04-27T07:34:24.183Z,68.33
2023-04-27T07:36:54.466Z,68.67
2023-04-27T07:39:22.483Z,67.52
2023-04-27T07:41:50.353Z,66.28
2023-04-27T07:44:19.110Z,67.57
2023-04-27T07:46:49.009Z,67.54
2023-04-27T07:49:17.050Z,65.68
2023-04-27T07:51:44.912Z,65.43
2023-04-27T07:54:12.642Z,65.64
2023-04-27T07:56:43.134Z,65.78
2023-04-27T07:59:11.445Z,64.24
2023-04-27T08:01:39.406Z,64.50
2023-04-27T08:04:07.340Z,63.51
2023-04-27T08:06:36.192Z,65.14
2023-04-27T08:09:05.393Z,64.91
2023-04-27T08:11:33.166Z,64.33
2023-04-27T08:14:01.228Z,63.90
2023-04-27T08:16:28.964Z,62.36
2023-04-27T08:18:57.549Z,61.54
2023-04-27T08:21:28.465Z,60.11
2023-04-27T08:23:56.784Z,61.02
2023-04-27T08:26:26.290Z,61.83
2023-04-27T08:28:56.360Z,61.38
2023-04-27T08:31:25.378Z,61.86
2023-04-27T08:33:54.114Z,62.25
2023-04-27T08:36:26.336Z,59.54
2023-04-27T08:38:54.125Z,61.30
2023-04-27T08:41:23.524Z,59.93
2023-04-27T08:43:52.093Z,59.48
2023-04-27T08:46:24.009Z,57.87
2023-04-27T08:48:53.015Z,58.00
2023-04-27T08:51:21.866Z,58.53
2023-04-27T08:53:54.633Z,59.26
2023-04-27T08:56:25.250Z,59.35
2023-04-27T08:58:53.157Z,60.18
2023-04-27T09:01:24.645Z,60.27
2023-04-27T09:03:58.736Z,59.74
2023-04-27T09:06:31.970Z,59.33
2023-04-27T09:09:00.889Z,58.43
2023-04-27T09:11:36.718Z,59.13
2023-04-27T09:14:17.033Z,58.56
2023-04-27T09:16:45.172Z,53.64
2023-04-27T09:19:24.466Z,56.16
2023-04-27T09:22:04.410Z,56.81
2023-04-27T09:24:32.129Z,56.93
2023-04-27T09:27:01.095Z,56.41
2023-04-27T09:29:39.081Z,56.10
2023-04-27T09:32:17.704Z,52.10
2023-04-27T09:34:45.778Z,54.02
2023-04-27T09:37:14.759Z,54.30
2023-04-27T09:39:43.017Z,55.02
2023-04-27T09:42:12.694Z,55.00
2023-04-27T09:44:40.719Z,55.14
2023-04-27T09:47:10.758Z,54.85
2023-04-27T09:49:39.005Z,55.19
2023-04-27T09:52:06.971Z,55.77
2023-04-27T09:54:36.612Z,55.71
2023-04-27T09:57:36.192Z,55.94
2023-04-27T10:00:20.616Z,56.85
2023-04-27T10:03:23.738Z,57.58
2023-04-27T10:06:06.855Z,57.78
2023-04-27T10:08:36.141Z,57.90
2023-04-27T10:11:15.406Z,56.48
2023-04-27T10:13:54.809Z,56.24
2023-04-27T10:16:23.243Z,56.91
2023-04-27T10:18:55.446Z,57.38
2023-04-27T10:21:23.938Z,57.82
2023-04-27T10:23:52.470Z,57.84
2023-04-27T10:26:24.491Z,58.07
2023-04-27T10:29:09.184Z,57.89
2023-04-27T10:31:45.213Z,58.28
2023-04-27T10:34:21.169Z,56.92
2023-04-27T10:36:49.217Z,57.92
2023-04-27T10:39:47.086Z,57.72
2023-04-27T10:42:30.542Z,57.03
2023-04-27T10:44:58.641Z,56.33
2023-04-27T10:47:37.611Z,56.23
2023-04-27T10:50:07.770Z,56.02
2023-04-27T10:52:35.605Z,56.18
2023-04-27T10:55:14.870Z,56.26
2023-04-27T10:57:56.018Z,55.54
2023-04-27T11:00:25.534Z,56.16
2023-04-27T11:02:55.033Z,55.40
2023-04-27T11:05:29.513Z,55.64
2023-04-27T11:08:07.330Z,54.74
2023-04-27T11:10:38.378Z,55.36
2023-04-27T11:13:15.019Z,51.89
2023-04-27T11:15:51.138Z,52.25
2023-04-27T11:18:20.636Z,52.36
2023-04-27T11:20:51.056Z,52.00
2023-04-27T11:23:26.320Z,51.80
2023-04-27T11:25:55.194Z,50.57
2023-04-27T11:28:24.439Z,49.95
2023-04-27T11:30:59.723Z,50.00
2023-04-27T11:33:28.408Z,50.24
2023-04-27T11:35:57.522Z,50.19
2023-04-27T11:38:27.651Z,47.53
2023-04-27T11:41:05.955Z,48.75
2023-04-27T11:43:34.630Z,48.23
2023-04-27T11:46:04.446Z,49.20
2023-04-27T11:48:32.802Z,49.21
2023-04-27T11:51:01.319Z,50.01
2023-04-27T11:53:34.014Z,49.13
2023-04-27T11:56:07.878Z,50.06
2023-04-27T11:58:37.486Z,49.83
2023-04-27T12:01:06.974Z,49.58
2023-04-27T12:03:35.378Z,47.71
2023-04-27T12:06:21.544Z,48.09
2023-04-27T12:08:51.485Z,44.78
2023-04-27T12:11:19.551Z,45.00
2023-04-27T12:13:47.310Z,45.87
2023-04-27T12:16:15.692Z,45.87
2023-04-27T12:18:43.732Z,45.41
2023-04-27T12:21:11.710Z,44.63
2023-04-27T12:23:39.394Z,44.62
2023-04-27T12:26:07.343Z,44.65
2023-04-27T12:28:35.162Z,44.98
2023-04-27T12:31:05.210Z,45.93
2023-04-27T12:33:33.099Z,42.66
2023-04-27T12:36:00.956Z,43.85
2023-04-27T12:38:29.349Z,44.46
2023-04-27T12:40:58.921Z,44.34
2023-04-27T12:43:27.102Z,43.06
2023-04-27T12:45:55.010Z,41.96
2023-04-27T12:48:23.682Z,43.26
2023-04-27T12:50:51.628Z,43.09
2023-04-27T12:53:19.518Z,43.61
2023-04-27T12:55:47.602Z,43.90
2023-04-27T12:58:15.842Z,44.69
2023-04-27T13:00:44.211Z,44.24
2023-04-27T13:03:12.276Z,44.41
2023-04-27T13:05:40.199Z,43.91
2023-04-27T13:08:07.889Z,44.05
2023-04-27T13:10:36.754Z,45.05
2023-04-27T13:13:04.516Z,44.86
2023-04-27T13:15:32.361Z,44.01
2023-04-27T13:18:01.948Z,44.04
2023-04-27T13:20:29.796Z,44.36
2023-04-27T13:22:57.518Z,46.00
2023-04-27T13:25:25.479Z,45.84
2023-04-27T13:27:54.115Z,44.57
2023-04-27T13:30:21.861Z,45.41
2023-04-27T13:32:49.590Z,44.33
2023-04-27T13:35:17.284Z,45.12
2023-04-27T13:37:45.541Z,46.08
2023-04-27T13:40:13.646Z,46.23
2023-04-27T13:42:41.824Z,46.50
2023-04-27T13:45:10.539Z,46.30
2023-04-27T13:47:39.993Z,46.34
2023-04-27T13:50:12.235Z,46.26
2023-04-27T13:52:40.661Z,46.42
2023-04-27T13:55:10.557Z,46.40
2023-04-27T13:57:38.323Z,46.97
2023-04-27T14:00:13.167Z,46.70
2023-04-27T14:02:41.386Z,46.28
2023-04-27T14:05:09.436Z,46.00
2023-04-27T14:07:37.268Z,45.90
2023-04-27T14:10:05.881Z,46.11
2023-04-27T14:12:33.924Z,46.28
2023-04-27T14:15:01.566Z,45.98
2023-04-27T14:17:29.987Z,45.38
2023-04-27T14:19:57.825Z,45.17
2023-04-27T14:22:26.372Z,43.71
2023-04-27T14:24:56.790Z,44.34
2023-04-27T14:27:24.711Z,43.84
2023-04-27T14:29:52.474Z,44.01
2023-04-27T14:32:21.425Z,43.13
2023-04-27T14:34:49.375Z,44.62
2023-04-27T14:37:17.716Z,44.41
2023-04-27T14:39:46.507Z,44.72
2023-04-27T14:42:14.458Z,45.05
2023-04-27T14:44:42.539Z,44.57
2023-04-27T14:47:10.828Z,43.23
2023-04-27T14:49:39.095Z,43.54
2023-04-27T14:52:08.471Z,44.40
2023-04-27T14:54:39.045Z,43.52
2023-04-27T14:57:08.183Z,44.25
2023-04-27T14:59:36.316Z,43.11
2023-04-27T15:02:05.000Z,44.70
2023-04-27T15:04:35.665Z,45.60
2023-04-27T15:07:04.744Z,46.21
2023-04-27T15:09:34.396Z,46.10
2023-04-27T15:12:04.246Z,46.69
2023-04-27T15:14:33.506Z,47.18
2023-04-27T15:17:01.473Z,47.13
2023-04-27T15:19:29.646Z,47.67
2023-04-27T15:21:58.021Z,47.96
2023-04-27T15:24:26.098Z,47.54
2023-04-27T15:26:54.608Z,48.12
2023-04-27T15:29:22.912Z,48.70
2023-04-27T15:31:51.163Z,48.22
2023-04-27T15:34:20.678Z,48.74
2023-04-27T15:36:49.098Z,48.31
2023-04-27T15:39:17.042Z,48.19
2023-04-27T15:41:45.275Z,48.62
2023-04-27T15:44:13.399Z,48.90
2023-04-27T15:46:42.014Z,48.77
2023-04-27T15:49:13.026Z,49.24
2023-04-27T15:51:41.416Z,49.05
2023-04-27T15:54:09.372Z,49.99
2023-04-27T15:56:37.475Z,49.57
2023-04-27T15:59:07.291Z,49.12
2023-04-27T16:01:35.968Z,49.98
2023-04-27T16:04:04.497Z,50.45
2023-04-27T16:06:35.893Z,50.43
2023-04-27T16:09:05.068Z,50.54
2023-04-27T16:11:33.826Z,50.74
2023-04-27T16:14:02.297Z,50.91
2023-04-27T16:16:30.658Z,51.32
2023-04-27T16:18:59.964Z,51.38
2023-04-27T16:21:28.795Z,51.45
2023-04-27T16:23:57.858Z,51.74
2023-04-27T16:26:27.835Z,51.71
2023-04-27T16:28:57.777Z,51.65
2023-04-27T16:31:25.930Z,52.04
2023-04-27T16:33:54.520Z,51.99
2023-04-27T16:36:23.394Z,52.02
2023-04-27T16:38:52.057Z,51.66
2023-04-27T16:41:20.987Z,51.77
2023-04-27T16:43:51.138Z,51.69
2023-04-27T16:46:19.480Z,51.43
2023-04-27T16:48:47.713Z,50.54
2023-04-27T16:51:15.770Z,51.13
2023-04-27T16:53:43.875Z,51.18
2023-04-27T16:56:13.717Z,51.67
2023-04-27T16:58:41.837Z,51.29
2023-04-27T17:01:09.586Z,50.58
2023-04-27T17:03:37.530Z,50.41
2023-04-27T17:06:05.539Z,49.18
2023-04-27T17:08:33.641Z,50.27
2023-04-27T17:11:01.684Z,50.47
2023-04-27T17:13:32.970Z,50.52
2023-04-27T17:16:01.948Z,50.69
2023-04-27T17:18:31.916Z,51.35
2023-04-27T17:21:01.144Z,51.25
2023-04-27T17:23:29.812Z,51.65
2023-04-27T17:25:58.621Z,52.91
2023-04-27T17:28:26.683Z,53.43
2023-04-27T17:30:54.324Z,54.87
2023-04-27T17:33:23.319Z,54.88
2023-04-27T17:35:52.727Z,55.99
2023-04-27T17:38:22.050Z,55.95
2023-04-27T17:40:50.931Z,55.72
2023-04-27T17:43:19.310Z,56.00
2023-04-27T17:45:48.262Z,55.71
2023-04-27T17:48:17.343Z,55.55
2023-04-27T17:50:46.196Z,55.73
2023-04-27T17:53:15.791Z,55.66
2023-04-27T17:55:48.222Z,56.81
2023-04-27T17:58:17.386Z,57.37
2023-04-27T18:00:46.534Z,58.18
2023-04-27T18:03:16.967Z,58.04
2023-04-27T18:05:47.006Z,58.51
2023-04-27T18:08:15.608Z,58.43
2023-04-27T18:10:45.619Z,58.85
2023-04-27T18:13:14.080Z,59.41
2023-04-27T18:15:42.966Z,60.13
2023-04-27T18:18:14.035Z,60.45
2023-04-27T18:20:45.479Z,60.95
2023-04-27T18:23:15.337Z,61.14
2023-04-27T18:25:44.695Z,61.49
2023-04-27T18:28:14.020Z,61.73
2023-04-27T18:30:43.390Z,62.21
2023-04-27T18:33:12.696Z,62.61
2023-04-27T18:35:41.524Z,63.24
2023-04-27T18:38:10.712Z,63.41
2023-04-27T18:40:41.143Z,63.94
2023-04-27T18:43:12.605Z,64.09
2023-04-27T18:45:42.379Z,64.74
2023-04-27T18:48:11.452Z,65.25
2023-04-27T18:50:41.728Z,65.09
2023-04-27T18:53:11.679Z,65.47
2023-04-27T18:55:40.322Z,66.09
2023-04-27T18:58:09.174Z,65.70
2023-04-27T19:00:41.797Z,65.54
2023-04-27T19:03:11.291Z,65.53
2023-04-27T19:05:43.331Z,65.43
2023-04-27T19:08:13.132Z,65.45
2023-04-27T19:10:42.855Z,65.19
2023-04-27T19:13:12.560Z,65.82
2023-04-27T19:15:42.927Z,66.09
2023-04-27T19:18:12.895Z,65.84
2023-04-27T19:20:42.797Z,65.33
2023-04-27T19:23:13.317Z,65.38
2023-04-27T19:25:42.264Z,65.52
2023-04-27T19:28:11.109Z,65.89
2023-04-27T19:30:39.618Z,66.02
2023-04-27T19:33:08.308Z,65.96
2023-04-27T19:35:37.440Z,65.95
2023-04-27T19:38:06.954Z,66.34
2023-04-27T19:40:37.161Z,66.38
2023-04-27T19:43:07.290Z,66.66
2023-04-27T19:45:39.115Z,67.21
2023-04-27T19:48:08.414Z,67.36
2023-04-27T19:50:38.664Z,67.51
2023-04-27T19:53:07.550Z,67.90
2023-04-27T19:55:36.551Z,68.27
2023-04-27T19:58:05.465Z,68.40
2023-04-27T20:00:34.986Z,68.62
2023-04-27T20:03:04.092Z,68.90
2023-04-27T20:05:35.738Z,68.72
2023-04-27T20:08:04.761Z,68.87
2023-04-27T20:10:34.318Z,68.74
2023-04-27T20:13:02.720Z,68.41
2023-04-27T20:15:31.218Z,68.69
2023-04-27T20:17:59.360Z,68.52
2023-04-27T20:20:28.407Z,68.95
2023-04-27T20:22:56.886Z,69.34
2023-04-27T20:25:26.095Z,69.24
2023-04-27T20:27:54.650Z,69.58
2023-04-27T20:30:22.869Z,69.55
2023-04-27T20:32:51.342Z,69.62
2023-04-27T20:35:20.324Z,69.70
2023-04-27T20:37:48.667Z,70.10
2023-04-27T20:40:18.300Z,70.10
2023-04-27T20:42:47.093Z,70.30
2023-04-27T20:45:15.550Z,70.40
2023-04-27T20:47:43.949Z,70.43
2023-04-27T20:50:12.674Z,70.61
2023-04-27T20:52:41.760Z,70.62
2023-04-27T20:55:10.492Z,70.86
2023-04-27T20:57:39.499Z,70.65
2023-04-27T21:00:10.132Z,70.78
2023-04-27T21:02:38.938Z,71.07
2023-04-27T21:05:07.758Z,71.50
2023-04-27T21:07:36.407Z,71.64
2023-04-27T21:10:07.098Z,71.64
2023-04-27T21:12:35.996Z,71.80
2023-04-27T21:15:04.732Z,71.95
2023-04-27T21:17:33.562Z,71.93
2023-04-27T21:20:02.398Z,72.00
2023-04-27T21:22:31.008Z,71.88
2023-04-27T21:24:59.368Z,72.38
2023-04-27T21:27:31.705Z,72.46
2023-04-27T21:30:00.068Z,72.55
2023-04-27T21:32:29.306Z,72.50
2023-04-27T21:34:57.744Z,72.74
2023-04-27T21:37:26.550Z,72.51
2023-04-27T21:39:55.024Z,73.17
2023-04-27T21:42:24.810Z,73.31
2023-04-27T21:44:53.093Z,73.47
2023-04-27T21:47:20.987Z,73.57
2023-04-27T21:49:50.594Z,74.04
2023-04-27T21:52:21.896Z,74.08
2023-04-27T21:54:50.175Z,74.26
2023-04-27T21:57:19.932Z,74.06
2023-04-27T21:59:48.835Z,74.13
2023-04-27T22:02:17.846Z,74.17
2023-04-27T22:04:46.690Z,74.50
2023-04-27T22:07:15.029Z,74.32
2023-04-27T22:09:43.980Z,74.40
2023-04-27T22:12:12.737Z,74.41
2023-04-27T22:14:43.554Z,74.33
2023-04-27T22:17:40.034Z,74.56
2023-04-27T22:20:13.142Z,74.56
2023-04-27T22:22:41.564Z,74.62
2023-04-27T22:25:12.043Z,74.69
2023-04-27T22:27:44.879Z,74.38
2023-04-27T22:30:15.764Z,74.51
2023-04-27T22:32:45.492Z,74.70
2023-04-27T22:35:25.504Z,75.25
2023-04-27T22:37:56.685Z,75.47
2023-04-27T22:40:25.727Z,75.37
2023-04-27T22:42:55.908Z,75.69
2023-04-27T22:45:24.879Z,75.74
2023-04-27T22:47:53.055Z,75.90
2023-04-27T22:50:21.867Z,76.31
2023-04-27T22:52:50.277Z,75.83
2023-04-27T22:55:19.631Z,75.71
2023-04-27T22:57:50.215Z,75.75
2023-04-27T23:00:18.505Z,76.05
2023-04-27T23:02:48.360Z,76.10
2023-04-27T23:05:16.941Z,76.66
2023-04-27T23:07:46.976Z,76.91
2023-04-27T23:10:15.553Z,76.87
2023-04-27T23:12:43.965Z,76.73
2023-04-27T23:15:12.719Z,76.97
2023-04-27T23:17:41.753Z,76.96
2023-04-27T23:20:24.558Z,76.82
2023-04-27T23:22:56.526Z,77.02
2023-04-27T23:25:26.206Z,77.27
2023-04-27T23:27:54.639Z,77.03
2023-04-27T23:30:23.796Z,76.96
2023-04-27T23:32:52.161Z,77.39
2023-04-27T23:35:21.198Z,77.51
2023-04-27T23:37:50.445Z,77.54
2023-04-27T23:40:18.963Z,77.79
2023-04-27T23:42:50.823Z,77.84
2023-04-27T23:45:21.144Z,77.58
2023-04-27T23:47:49.925Z,77.82
2023-04-27T23:50:19.097Z,77.87
2023-04-27T23:52:48.233Z,78.01
2023-04-27T23:55:17.238Z,78.28
2023-04-27T23:57:46.453Z,78.27
